Latest Weather Observations for Yanco

IDN60801

Issued at 8:32 pm EST Wednesday 5 August 2020 (issued every 10 minutes, with the page automatically refreshed every 10 minutes)

About weather observations | Map of weather stations | Latest weather observations for NSW | Other Formats
Station Details ID: 074037 Name: YANCO AGRICULTURAL INSTITUTE Lat: -34.62 Lon: 146.43 Height: 164.0 m
Data from the previous 72 hours. | See also: Recent months at Yanco
Date/Time
EST
Temp
°C
App
Temp
°C
Dew
Point
°C
Rel
Hum
%
Delta-T
°C
Wind Press
QNH
hPa
Press
MSL
hPa
Rain since
9am
mm
Dir  Spd
km/h
Gust
km/h
Spd
kts
Gust
kts
05/08:30pm 6.3 3.7 0.8 68 2.2 WSW 4 6 2 3 - - 0.0
05/08:00pm 6.3 3.3 0.8 68 2.2 WSW 6 6 3 3 - - 0.0
05/07:30pm 6.3 3.3 0.8 68 2.2 WSW 6 9 3 5 - - 0.0
05/07:00pm 6.3 3.3 0.8 68 2.2 WSW 6 7 3 4 - - 0.0
05/06:30pm 7.2 4.3 1.3 66 2.4 WSW 6 7 3 4 - - 0.0
05/06:00pm 7.8 4.9 1.4 64 2.6 SW 6 7 3 4 - - 0.0
05/05:30pm 9.4 5.4 0.8 55 3.5 SW 11 17 6 9 - - 0.0
05/05:00pm 11.1 6.4 1.1 50 4.2 SW 15 20 8 11 - - 0.0
05/04:30pm 12.1 7.6 2.3 51 4.3 WSW 15 22 8 12 - - 0.0
05/04:00pm 12.3 7.8 1.9 49 4.5 WSW 15 24 8 13 - - 0.0
05/03:30pm 12.5 7.3 2.4 50 4.4 SW 19 30 10 16 - - 0.0
05/03:00pm 12.7 7.7 3.6 54 4.1 SW 19 28 10 15 - - 0.0
05/02:30pm 12.6 7.3 3.0 52 4.3 SW 20 28 11 15 - - 0.0
05/02:00pm 12.4 7.4 3.6 55 4.0 SW 19 24 10 13 - - 0.0
05/01:30pm 12.1 8.0 4.1 58 3.6 WSW 15 24 8 13 - - 0.0
05/01:00pm 11.6 7.1 4.3 61 3.3 WSW 17 28 9 15 - - 0.0
05/12:30pm 10.6 6.6 4.9 68 2.6 W 15 24 8 13 - - 0.0
05/12:00pm 10.1 5.5 5.7 74 2.0 WSW 19 26 10 14 - - 0.0
05/11:30am 9.3 5.3 4.7 73 2.1 WSW 15 24 8 13 - - 0.0
05/11:00am 8.3 4.5 3.9 74 1.9 W 13 19 7 10 - - 0.0
05/10:30am 7.2 2.5 3.4 77 1.6 WSW 17 22 9 12 - - 0.0
05/10:00am 6.9 3.8 3.7 80 1.4 W 9 17 5 9 - - 0.0
05/09:30am 5.3 2.5 3.0 85 1.0 NW 7 11 4 6 - - 0.0
05/09:00am 3.0 -0.4 2.0 93 0.4 NNW 9 11 5 6 - - 0.0
05/08:30am 1.7 -1.4 1.6 99 0.0 NNW 7 11 4 6 - - 0.0
05/08:00am 0.4 -2.9 0.4 100 0.0 NNW 7 9 4 5 - - 0.0
05/07:30am 1.3 -1.6 1.3 100 0.0 WNW 6 7 3 4 - - 0.0
05/07:00am 1.2 -1.9 1.1 99 0.0 W 7 11 4 6 - - 0.0
05/06:30am 1.3 -1.9 1.0 98 0.1 W 7 11 4 6 - - 0.0
05/06:00am 1.4 -2.5 1.1 98 0.1 WSW 11 15 6 8 - - 0.0
05/05:30am 1.5 -2.4 1.2 98 0.1 WSW 11 15 6 8 - - 0.0
05/05:00am 1.6 -1.6 0.9 95 0.3 W 7 13 4 7 - - 0.0
05/04:30am 2.1 -1.5 0.9 92 0.5 W 9 13 5 7 - - 0.0
05/04:00am 2.9 -1.7 1.3 89 0.6 WSW 15 20 8 11 - - 0.0
05/03:30am 3.5 -1.1 1.5 87 0.8 W 15 22 8 12 - - 0.0
05/03:00am 4.0 -0.9 1.7 85 0.9 WSW 17 28 9 15 - - 0.0
05/02:30am 3.9 -0.3 1.9 87 0.8 W 13 22 7 12 - - 0.0
05/02:00am 2.9 -0.6 1.3 89 0.6 W 9 13 5 7 - - 0.0
05/01:30am 3.2 -0.3 1.3 87 0.7 W 9 15 5 8 - - 0.0
05/01:00am 3.7 -0.2 1.3 84 0.9 WSW 11 17 6 9 - - 0.0
05/12:30am 3.8 -0.1 1.4 84 0.9 WSW 11 19 6 10 - - 0.0
05/12:00am 4.0 0.1 1.0 81 1.2 WSW 11 17 6 9 - - 0.0
 
Date/Time
EST
Temp
°C
App
Temp
°C
Dew
Point
°C
Rel
Hum
%
Delta-T
°C
Wind Press
QNH
hPa
Press
MSL
hPa
Rain since
9am
mm
Dir  Spd
km/h
Gust
km/h
Spd
kts
Gust
kts
04/11:30pm 4.1 0.5 0.8 79 1.3 WSW 9 13 5 7 - - 0.0
04/11:00pm 4.1 0.2 1.0 80 1.2 WSW 11 17 6 9 - - 0.0
04/10:30pm 3.5 -0.2 -0.1 77 1.4 W 9 15 5 8 - - 0.0
04/10:00pm 3.2 0.0 -0.8 75 1.5 NNW 6 7 3 4 - - 0.0
04/09:30pm 4.0 0.7 -1.0 70 1.9 NNW 6 7 3 4 - - 0.0
04/09:00pm 3.9 0.9 0.6 79 1.3 NNW 6 6 3 3 - - 0.0
04/08:30pm 4.9 1.7 -0.3 69 2.0 W 6 6 3 3 - - 0.0
04/08:00pm 5.5 2.7 -0.3 66 2.2 W 4 6 2 3 - - 0.0
04/07:30pm 5.7 2.8 -1.0 62 2.5 W 4 6 2 3 - - 0.0
04/07:00pm 6.3 3.4 -1.1 59 2.8 W 4 6 2 3 - - 0.0
04/06:30pm 6.3 3.0 -1.1 59 2.8 WSW 6 6 3 3 - - 0.0
04/06:00pm 7.0 3.5 -1.2 56 3.1 WSW 7 9 4 5 - - 0.0
04/05:30pm 8.3 4.1 -1.2 51 3.7 SW 11 15 6 8 - - 0.0
04/05:00pm 10.1 5.2 -0.4 48 4.2 SW 15 22 8 12 - - 0.0
04/04:30pm 10.9 5.2 -0.5 45 4.6 SW 19 22 10 12 - - 0.0
04/04:00pm 11.5 6.2 -0.9 42 5.0 WSW 17 24 9 13 - - 0.0
04/03:30pm 11.5 5.1 -1.6 40 5.2 SW 22 30 12 16 - - 0.0
04/03:00pm 11.5 5.6 -2.3 38 5.4 WSW 19 24 10 13 - - 0.0
04/02:30pm 11.4 4.8 -3.1 36 5.6 WSW 22 33 12 18 - - 0.0
04/02:00pm 11.6 5.7 -2.6 37 5.5 SW 19 28 10 15 - - 0.0
04/01:30pm 11.2 5.1 -2.2 39 5.2 SW 20 33 11 18 - - 0.0
04/01:00pm 10.8 4.0 -1.6 42 4.9 WSW 24 32 13 17 - - 0.0
04/12:30pm 11.2 4.7 0.6 48 4.4 SW 24 35 13 19 - - 0.0
04/12:00pm 11.0 4.7 4.0 62 3.1 WSW 26 33 14 18 - - 0.0
04/11:30am 10.7 5.3 4.6 66 2.8 SW 22 32 12 17 - - 0.0
04/11:00am 10.6 5.3 4.9 68 2.6 SW 22 32 12 17 - - 0.0
04/10:30am 10.2 5.9 5.4 72 2.2 SW 17 22 9 12 - - 0.0
04/10:00am 9.5 4.6 5.3 75 1.9 WSW 20 30 11 16 - - 0.0
04/09:30am 8.1 3.3 4.9 80 1.4 SW 19 24 10 13 - - 0.0
04/09:00am 7.9 3.5 4.8 81 1.4 WSW 17 22 9 12 - - 0.0
04/08:30am 7.5 3.1 4.8 83 1.2 SW 17 20 9 11 - - 0.0
04/08:00am 7.3 2.3 4.6 83 1.2 SW 20 28 11 15 - - 0.0
04/07:30am 7.2 3.0 5.7 90 0.7 SW 17 24 9 13 - - 0.0
04/07:00am 7.0 3.2 5.9 93 0.5 SW 15 19 8 10 - - 0.0
04/06:30am 7.4 3.7 6.5 94 0.4 SW 15 20 8 11 - - 0.0
04/06:00am 6.8 4.6 6.4 97 0.2 NW 7 24 4 13 - - 0.0
04/05:30am 6.4 4.6 5.4 93 0.4 NNW 4 6 2 3 - - 0.0
04/05:00am 6.8 4.6 5.4 91 0.6 NNW 6 6 3 3 - - 0.0
04/04:30am 6.8 4.5 4.8 87 0.9 NNW 6 6 3 3 - - 0.0
04/04:00am 7.5 5.6 5.0 84 1.1 NNW 4 4 2 2 - - 0.0
04/03:30am 7.8 6.3 5.1 83 1.2 NNW 2 4 1 2 - - 0.0
04/03:00am 8.3 6.5 5.4 82 1.3 NNW 4 4 2 2 - - 0.0
04/02:30am 8.3 6.5 5.4 82 1.3 NNW 4 6 2 3 - - 0.0
04/02:00am 8.6 6.5 5.9 83 1.2 NNW 6 9 3 5 - - 0.0
04/01:30am 9.1 7.1 6.2 82 1.3 WNW 6 7 3 4 - - 0.0
04/01:00am 9.7 6.0 6.2 79 1.6 WNW 15 35 8 19 - - 0.0
04/12:30am 10.5 7.3 6.8 78 1.8 N 13 19 7 10 - - 0.0
04/12:00am 10.8 7.2 6.7 76 2.0 N 15 20 8 11 - - 0.0
 
Date/Time
EST
Temp
°C
App
Temp
°C
Dew
Point
°C
Rel
Hum
%
Delta-T
°C
Wind Press
QNH
hPa
Press
MSL
hPa
Rain since
9am
mm
Dir  Spd
km/h
Gust
km/h
Spd
kts
Gust
kts
03/11:30pm 10.9 7.6 6.6 75 2.0 N 13 20 7 11 - - 0.0
03/11:00pm 10.9 7.8 7.2 78 1.8 N 13 17 7 9 - - 0.0
03/10:30pm 10.5 7.9 7.6 82 1.4 N 11 15 6 8 - - 0.0
03/10:00pm 10.9 7.9 7.8 81 1.5 N 13 17 7 9 - - 0.0
03/09:30pm 11.4 8.4 7.9 79 1.7 N 13 17 7 9 - - 0.0
03/09:00pm 11.7 8.7 7.6 76 2.0 N 13 17 7 9 - - 0.0
03/08:30pm 12.2 9.2 7.9 75 2.1 NNE 13 17 7 9 - - 0.0
03/08:00pm 11.9 9.0 8.0 77 1.9 NNE 13 19 7 10 - - 0.0
03/07:30pm 12.3 9.2 7.2 71 2.5 NNE 13 17 7 9 - - 0.0
03/07:00pm 12.8 9.9 6.4 65 3.1 NNE 11 15 6 8 - - 0.0
03/06:30pm 13.3 11.3 6.9 65 3.1 NNE 7 9 4 5 - - 0.0
03/06:00pm 13.4 11.3 6.5 63 3.3 N 7 9 4 5 - - 0.0
03/05:30pm 14.6 12.6 6.4 58 4.0 NNW 6 7 3 4 - - 0.0
03/05:00pm 16.1 14.3 7.1 55 4.5 NNW 6 6 3 3 - - 0.0
03/04:30pm 16.7 14.6 6.8 52 4.9 NW 7 11 4 6 - - 0.0
03/04:00pm 17.4 14.9 6.6 49 5.4 WNW 9 13 5 7 - - 0.0
03/03:30pm 17.9 14.6 6.4 47 5.7 WNW 13 19 7 10 - - 0.0
03/03:00pm 18.3 15.1 6.8 47 5.8 WNW 13 20 7 11 - - 0.0
03/02:30pm 18.6 14.6 5.1 41 6.6 WNW 15 24 8 13 - - 0.0
03/02:00pm 19.1 15.3 5.9 42 6.6 NW 15 24 8 13 - - 0.0
03/01:30pm 18.3 15.5 6.8 47 5.8 NNW 11 22 6 12 - - 0.0
03/01:00pm 18.1 15.3 8.7 54 4.9 NNW 13 19 7 10 - - 0.0
03/12:30pm 17.1 14.3 8.5 57 4.4 NNW 13 19 7 10 - - 0.0
03/12:00pm 16.5 13.6 8.0 57 4.3 NNW 13 20 7 11 - - 0.0
03/11:30am 16.1 12.6 7.3 56 4.4 NW 15 24 8 13 - - 0.0
03/11:00am 15.0 11.8 8.5 65 3.3 NNW 15 20 8 11 - - 0.0
03/10:30am 14.0 11.6 8.8 71 2.6 N 11 17 6 9 - - 0.0
03/10:00am 12.8 10.6 9.4 80 1.7 N 11 13 6 7 - - 0.0
03/09:30am 11.1 9.1 10.3 95 0.4 N 11 15 6 8 - - 0.0
03/09:00am 10.2 8.6 10.2 100 0.0 N 9 13 5 7 - - 0.0
03/08:30am 9.2 7.3 9.2 100 0.0 N 9 11 5 6 - - -
03/08:00am 8.5 6.8 8.5 100 0.0 N 7 13 4 7 - - -
03/07:30am 7.3 5.3 7.3 100 0.0 N 7 9 4 5 - - -
03/07:00am 6.8 4.7 6.8 100 0.0 NNE 7 9 4 5 - - -
03/06:00am 6.8 4.9 6.8 100 0.0 NNE 6 7 3 4 - - -
03/05:30am 6.5 4.4 6.5 100 0.0 NNE 7 9 4 5 - - -
03/05:00am 7.0 5.2 7.0 100 0.0 NNE 6 7 3 4 - - -
03/04:30am 7.1 5.3 7.1 100 0.0 NNE 6 7 3 4 - - -
03/04:00am 7.4 - - - - NNE 7 9 4 5 - - -
03/03:30am 7.6 - - - - NE 7 9 4 5 - - -
03/03:00am 7.3 - - - - NE 7 7 4 4 - - 0.0
03/02:30am 7.6 - - - - NE 6 7 3 4 - - -
03/02:00am 7.9 - - - - NE 7 9 4 5 - - -
03/01:30am 8.2 - - - - ENE 6 7 3 4 - - -
03/01:00am 8.0 6.4 8.0 100 0.0 ENE 6 6 3 3 - - -
03/12:30am 7.8 5.6 7.8 100 0.0 ENE 9 11 5 6 - - -
03/12:00am 8.4 6.3 8.1 98 0.1 ENE 9 11 5 6 - - -
 
Date/Time
EST
Temp
°C
App
Temp
°C
Dew
Point
°C
Rel
Hum
%
Delta-T
°C
Wind Press
QNH
hPa
Press
MSL
hPa
Rain since
9am
mm
Dir  Spd
km/h
Gust
km/h
Spd
kts
Gust
kts
02/11:30pm 8.8 6.8 8.5 98 0.1 ENE 9 11 5 6 - - -
02/11:00pm 8.7 6.3 8.6 99 0.0 ENE 11 13 6 7 - - -
02/10:30pm 8.6 6.1 8.3 98 0.1 ENE 11 13 6 7 - - -
02/10:00pm 8.9 6.3 7.8 93 0.5 E 11 13 6 7 - - -
02/09:30pm 9.9 7.0 8.2 89 0.8 ENE 13 15 7 8 - - -
02/09:00pm 9.3 6.3 7.9 91 0.7 E 13 15 7 8 - - -

Other formats

Comma delimited format used in spreadsheet applications
http://www.bom.gov.au/fwo/IDN60801/IDN60801.95705.axf

JavaScript Object Notation format (JSON) in row-major order
http://www.bom.gov.au/fwo/IDN60801/IDN60801.95705.json

Data quality

Most of these data are generated automatically and are frequently updated. Quality checks on data are not normally performed. It is possible for incorrect values to appear. Refer to information at About Latest Weather Observations and please check the disclaimer before using these data.